sensor_id;sensor_type;location;lat;lon;timestamp;P1;durP1;ratioP1;P2;durP2;ratioP2
48993;SDS011;34804;49.214;12.276;2023-04-25T00:01:46;9.55;;;3.30;;
48993;SDS011;34804;49.214;12.276;2023-04-25T00:04:13;7.55;;;3.53;;
48993;SDS011;34804;49.214;12.276;2023-04-25T00:06:40;9.38;;;3.88;;
48993;SDS011;34804;49.214;12.276;2023-04-25T00:09:07;6.00;;;3.17;;
48993;SDS011;34804;49.214;12.276;2023-04-25T00:11:36;5.55;;;3.55;;
48993;SDS011;34804;49.214;12.276;2023-04-25T00:14:04;7.65;;;3.33;;
48993;SDS011;34804;49.214;12.276;2023-04-25T00:16:31;6.45;;;3.53;;
48993;SDS011;34804;49.214;12.276;2023-04-25T00:19:00;7.43;;;4.00;;
48993;SDS011;34804;49.214;12.276;2023-04-25T00:21:29;7.28;;;3.65;;
48993;SDS011;34804;49.214;12.276;2023-04-25T00:23:57;6.40;;;3.80;;
48993;SDS011;34804;49.214;12.276;2023-04-25T00:26:25;6.93;;;4.05;;
48993;SDS011;34804;49.214;12.276;2023-04-25T00:28:52;8.15;;;3.92;;
48993;SDS011;34804;49.214;12.276;2023-04-25T00:31:18;7.65;;;4.05;;
48993;SDS011;34804;49.214;12.276;2023-04-25T00:33:45;9.00;;;3.80;;
48993;SDS011;34804;49.214;12.276;2023-04-25T00:36:12;8.43;;;4.43;;
48993;SDS011;34804;49.214;12.276;2023-04-25T00:38:39;7.07;;;3.63;;
48993;SDS011;34804;49.214;12.276;2023-04-25T00:41:07;7.47;;;3.95;;
48993;SDS011;34804;49.214;12.276;2023-04-25T00:43:34;6.43;;;3.75;;
48993;SDS011;34804;49.214;12.276;2023-04-25T00:46:02;7.80;;;3.75;;
48993;SDS011;34804;49.214;12.276;2023-04-25T00:48:29;7.28;;;3.47;;
48993;SDS011;34804;49.214;12.276;2023-04-25T00:50:57;8.77;;;3.90;;
48993;SDS011;34804;49.214;12.276;2023-04-25T00:53:25;6.25;;;3.70;;
48993;SDS011;34804;49.214;12.276;2023-04-25T00:55:54;7.57;;;4.03;;
48993;SDS011;34804;49.214;12.276;2023-04-25T00:58:21;6.90;;;4.07;;
48993;SDS011;34804;49.214;12.276;2023-04-25T01:00:50;7.22;;;3.92;;
48993;SDS011;34804;49.214;12.276;2023-04-25T01:03:18;7.55;;;3.58;;
48993;SDS011;34804;49.214;12.276;2023-04-25T01:05:49;12.40;;;4.43;;
48993;SDS011;34804;49.214;12.276;2023-04-25T01:08:17;7.85;;;3.92;;
48993;SDS011;34804;49.214;12.276;2023-04-25T01:10:43;6.95;;;3.83;;
48993;SDS011;34804;49.214;12.276;2023-04-25T01:13:10;8.10;;;4.10;;
48993;SDS011;34804;49.214;12.276;2023-04-25T01:15:37;8.05;;;3.90;;
48993;SDS011;34804;49.214;12.276;2023-04-25T01:18:05;5.85;;;3.67;;
48993;SDS011;34804;49.214;12.276;2023-04-25T01:20:33;7.60;;;3.83;;
48993;SDS011;34804;49.214;12.276;2023-04-25T01:23:01;7.60;;;4.30;;
48993;SDS011;34804;49.214;12.276;2023-04-25T01:25:30;9.07;;;4.57;;
48993;SDS011;34804;49.214;12.276;2023-04-25T01:27:57;7.68;;;4.47;;
48993;SDS011;34804;49.214;12.276;2023-04-25T01:30:26;7.68;;;4.30;;
48993;SDS011;34804;49.214;12.276;2023-04-25T01:32:54;7.22;;;4.28;;
48993;SDS011;34804;49.214;12.276;2023-04-25T01:35:22;6.18;;;3.80;;
48993;SDS011;34804;49.214;12.276;2023-04-25T01:37:51;7.00;;;3.40;;
48993;SDS011;34804;49.214;12.276;2023-04-25T01:40:18;6.50;;;3.72;;
48993;SDS011;34804;49.214;12.276;2023-04-25T01:42:47;7.28;;;4.28;;
48993;SDS011;34804;49.214;12.276;2023-04-25T01:45:15;7.63;;;4.53;;
48993;SDS011;34804;49.214;12.276;2023-04-25T01:47:42;8.32;;;4.85;;
48993;SDS011;34804;49.214;12.276;2023-04-25T01:50:10;8.70;;;4.90;;
48993;SDS011;34804;49.214;12.276;2023-04-25T01:52:37;9.40;;;5.07;;
48993;SDS011;34804;49.214;12.276;2023-04-25T01:55:05;8.27;;;4.95;;
48993;SDS011;34804;49.214;12.276;2023-04-25T01:57:32;8.38;;;5.00;;
48993;SDS011;34804;49.214;12.276;2023-04-25T02:00:01;9.50;;;4.65;;
48993;SDS011;34804;49.214;12.276;2023-04-25T02:02:29;10.00;;;4.85;;
48993;SDS011;34804;49.214;12.276;2023-04-25T02:04:57;7.95;;;4.45;;
48993;SDS011;34804;49.214;12.276;2023-04-25T02:07:23;8.38;;;4.50;;
48993;SDS011;34804;49.214;12.276;2023-04-25T02:09:50;7.25;;;4.00;;
48993;SDS011;34804;49.214;12.276;2023-04-25T02:12:17;6.82;;;4.03;;
48993;SDS011;34804;49.214;12.276;2023-04-25T02:14:44;7.50;;;4.20;;
48993;SDS011;34804;49.214;12.276;2023-04-25T02:17:11;8.15;;;4.18;;
48993;SDS011;34804;49.214;12.276;2023-04-25T02:19:39;9.18;;;4.20;;
48993;SDS011;34804;49.214;12.276;2023-04-25T02:22:06;6.35;;;3.78;;
48993;SDS011;34804;49.214;12.276;2023-04-25T02:24:32;7.65;;;4.50;;
48993;SDS011;34804;49.214;12.276;2023-04-25T02:27:00;8.18;;;4.82;;
48993;SDS011;34804;49.214;12.276;2023-04-25T02:29:28;9.23;;;4.57;;
48993;SDS011;34804;49.214;12.276;2023-04-25T02:31:55;9.65;;;4.50;;
48993;SDS011;34804;49.214;12.276;2023-04-25T02:34:22;7.15;;;4.50;;
48993;SDS011;34804;49.214;12.276;2023-04-25T02:36:50;9.05;;;4.68;;
48993;SDS011;34804;49.214;12.276;2023-04-25T02:39:18;9.60;;;5.30;;
48993;SDS011;34804;49.214;12.276;2023-04-25T02:41:44;10.45;;;4.90;;
48993;SDS011;34804;49.214;12.276;2023-04-25T02:44:13;8.93;;;4.32;;
48993;SDS011;34804;49.214;12.276;2023-04-25T02:46:41;8.98;;;4.90;;
48993;SDS011;34804;49.214;12.276;2023-04-25T02:49:07;7.47;;;4.18;;
48993;SDS011;34804;49.214;12.276;2023-04-25T02:51:34;6.93;;;3.70;;
48993;SDS011;34804;49.214;12.276;2023-04-25T02:54:01;7.03;;;3.60;;
48993;SDS011;34804;49.214;12.276;2023-04-25T02:56:28;6.35;;;3.53;;
48993;SDS011;34804;49.214;12.276;2023-04-25T02:58:55;6.90;;;3.67;;
48993;SDS011;34804;49.214;12.276;2023-04-25T03:01:22;7.13;;;3.20;;
48993;SDS011;34804;49.214;12.276;2023-04-25T03:03:49;6.10;;;3.38;;
48993;SDS011;34804;49.214;12.276;2023-04-25T03:06:16;7.57;;;3.30;;
48993;SDS011;34804;49.214;12.276;2023-04-25T03:08:43;5.35;;;2.92;;
48993;SDS011;34804;49.214;12.276;2023-04-25T03:11:10;5.65;;;2.90;;
48993;SDS011;34804;49.214;12.276;2023-04-25T03:13:36;5.93;;;3.08;;
48993;SDS011;34804;49.214;12.276;2023-04-25T03:16:03;7.60;;;3.20;;
48993;SDS011;34804;49.214;12.276;2023-04-25T03:18:31;5.75;;;3.00;;
48993;SDS011;34804;49.214;12.276;2023-04-25T03:20:57;7.55;;;2.95;;
48993;SDS011;34804;49.214;12.276;2023-04-25T03:23:25;5.20;;;2.97;;
48993;SDS011;34804;49.214;12.276;2023-04-25T03:25:53;7.10;;;2.80;;
48993;SDS011;34804;49.214;12.276;2023-04-25T03:28:20;5.38;;;3.20;;
48993;SDS011;34804;49.214;12.276;2023-04-25T03:30:47;5.57;;;2.80;;
48993;SDS011;34804;49.214;12.276;2023-04-25T03:33:13;7.43;;;2.75;;
48993;SDS011;34804;49.214;12.276;2023-04-25T03:35:40;7.65;;;2.90;;
48993;SDS011;34804;49.214;12.276;2023-04-25T03:38:09;7.28;;;2.70;;
48993;SDS011;34804;49.214;12.276;2023-04-25T03:40:35;5.40;;;3.13;;
48993;SDS011;34804;49.214;12.276;2023-04-25T03:43:02;6.50;;;3.20;;
48993;SDS011;34804;49.214;12.276;2023-04-25T03:45:29;6.70;;;3.17;;
48993;SDS011;34804;49.214;12.276;2023-04-25T03:47:57;5.93;;;3.20;;
48993;SDS011;34804;49.214;12.276;2023-04-25T03:50:24;5.75;;;3.03;;
48993;SDS011;34804;49.214;12.276;2023-04-25T03:52:51;5.07;;;3.00;;
48993;SDS011;34804;49.214;12.276;2023-04-25T03:55:18;6.20;;;3.50;;
48993;SDS011;34804;49.214;12.276;2023-04-25T03:57:45;5.82;;;3.25;;
48993;SDS011;34804;49.214;12.276;2023-04-25T04:00:12;6.07;;;3.88;;
48993;SDS011;34804;49.214;12.276;2023-04-25T04:02:39;8.77;;;3.97;;
48993;SDS011;34804;49.214;12.276;2023-04-25T04:05:10;6.88;;;4.18;;
48993;SDS011;34804;49.214;12.276;2023-04-25T04:07:38;7.30;;;4.20;;
48993;SDS011;34804;49.214;12.276;2023-04-25T04:10:06;6.63;;;3.67;;
48993;SDS011;34804;49.214;12.276;2023-04-25T04:12:33;7.35;;;3.72;;
48993;SDS011;34804;49.214;12.276;2023-04-25T04:15:01;5.53;;;3.17;;
48993;SDS011;34804;49.214;12.276;2023-04-25T04:17:30;6.35;;;3.47;;
48993;SDS011;34804;49.214;12.276;2023-04-25T04:19:57;8.02;;;3.50;;
48993;SDS011;34804;49.214;12.276;2023-04-25T04:22:24;6.10;;;3.45;;
48993;SDS011;34804;49.214;12.276;2023-04-25T04:24:51;6.38;;;3.40;;
48993;SDS011;34804;49.214;12.276;2023-04-25T04:27:18;6.28;;;3.45;;
48993;SDS011;34804;49.214;12.276;2023-04-25T04:29:48;6.15;;;3.83;;
48993;SDS011;34804;49.214;12.276;2023-04-25T04:32:16;7.70;;;3.33;;
48993;SDS011;34804;49.214;12.276;2023-04-25T04:34:43;6.50;;;3.60;;
48993;SDS011;34804;49.214;12.276;2023-04-25T04:37:10;6.38;;;3.53;;
48993;SDS011;34804;49.214;12.276;2023-04-25T04:39:39;5.75;;;3.60;;
48993;SDS011;34804;49.214;12.276;2023-04-25T04:42:06;7.18;;;3.85;;
48993;SDS011;34804;49.214;12.276;2023-04-25T04:44:34;7.47;;;3.67;;
48993;SDS011;34804;49.214;12.276;2023-04-25T04:47:01;6.45;;;3.30;;
48993;SDS011;34804;49.214;12.276;2023-04-25T04:49:32;6.85;;;3.85;;
48993;SDS011;34804;49.214;12.276;2023-04-25T04:51:59;7.72;;;3.50;;
48993;SDS011;34804;49.214;12.276;2023-04-25T04:54:27;6.07;;;3.70;;
48993;SDS011;34804;49.214;12.276;2023-04-25T04:56:53;7.75;;;3.72;;
48993;SDS011;34804;49.214;12.276;2023-04-25T04:59:20;8.10;;;3.72;;
48993;SDS011;34804;49.214;12.276;2023-04-25T05:01:47;7.57;;;3.63;;
48993;SDS011;34804;49.214;12.276;2023-04-25T05:04:14;7.45;;;3.75;;
48993;SDS011;34804;49.214;12.276;2023-04-25T05:06:41;6.97;;;3.80;;
48993;SDS011;34804;49.214;12.276;2023-04-25T05:09:08;6.43;;;3.17;;
48993;SDS011;34804;49.214;12.276;2023-04-25T05:11:34;8.00;;;3.28;;
48993;SDS011;34804;49.214;12.276;2023-04-25T05:14:01;7.70;;;3.60;;
48993;SDS011;34804;49.214;12.276;2023-04-25T05:16:28;7.50;;;3.60;;
48993;SDS011;34804;49.214;12.276;2023-04-25T05:18:55;5.40;;;3.00;;
48993;SDS011;34804;49.214;12.276;2023-04-25T05:21:21;6.88;;;3.40;;
48993;SDS011;34804;49.214;12.276;2023-04-25T05:23:49;6.63;;;3.08;;
48993;SDS011;34804;49.214;12.276;2023-04-25T05:26:16;6.15;;;3.28;;
48993;SDS011;34804;49.214;12.276;2023-04-25T05:28:42;8.95;;;3.72;;
48993;SDS011;34804;49.214;12.276;2023-04-25T05:31:09;7.35;;;3.42;;
48993;SDS011;34804;49.214;12.276;2023-04-25T05:33:36;6.78;;;3.60;;
48993;SDS011;34804;49.214;12.276;2023-04-25T05:36:03;7.30;;;3.17;;
48993;SDS011;34804;49.214;12.276;2023-04-25T05:38:30;7.38;;;3.10;;
48993;SDS011;34804;49.214;12.276;2023-04-25T05:41:00;7.10;;;3.28;;
48993;SDS011;34804;49.214;12.276;2023-04-25T05:43:27;8.10;;;3.17;;
48993;SDS011;34804;49.214;12.276;2023-04-25T05:45:54;6.85;;;3.10;;
48993;SDS011;34804;49.214;12.276;2023-04-25T05:48:21;6.45;;;3.05;;
48993;SDS011;34804;49.214;12.276;2023-04-25T05:50:47;6.97;;;2.70;;
48993;SDS011;34804;49.214;12.276;2023-04-25T05:53:14;6.82;;;3.22;;
48993;SDS011;34804;49.214;12.276;2023-04-25T05:55:41;5.07;;;2.67;;
48993;SDS011;34804;49.214;12.276;2023-04-25T05:58:08;8.68;;;3.03;;
48993;SDS011;34804;49.214;12.276;2023-04-25T06:00:35;5.90;;;2.97;;
48993;SDS011;34804;49.214;12.276;2023-04-25T06:03:01;6.00;;;3.05;;
48993;SDS011;34804;49.214;12.276;2023-04-25T06:05:28;7.18;;;3.10;;
48993;SDS011;34804;49.214;12.276;2023-04-25T06:07:55;8.30;;;3.03;;
48993;SDS011;34804;49.214;12.276;2023-04-25T06:10:22;5.57;;;2.67;;
48993;SDS011;34804;49.214;12.276;2023-04-25T06:12:49;7.10;;;2.72;;
48993;SDS011;34804;49.214;12.276;2023-04-25T06:15:16;6.93;;;3.10;;
48993;SDS011;34804;49.214;12.276;2023-04-25T06:17:54;4.63;;;2.60;;
48993;SDS011;34804;49.214;12.276;2023-04-25T06:20:21;5.30;;;2.75;;
48993;SDS011;34804;49.214;12.276;2023-04-25T06:22:49;9.23;;;3.30;;
48993;SDS011;34804;49.214;12.276;2023-04-25T06:25:16;5.30;;;3.00;;
48993;SDS011;34804;49.214;12.276;2023-04-25T06:27:43;5.13;;;2.85;;
48993;SDS011;34804;49.214;12.276;2023-04-25T06:30:10;9.10;;;3.50;;
48993;SDS011;34804;49.214;12.276;2023-04-25T06:32:38;6.32;;;2.78;;
48993;SDS011;34804;49.214;12.276;2023-04-25T06:35:05;8.02;;;3.20;;
48993;SDS011;34804;49.214;12.276;2023-04-25T06:37:32;5.35;;;3.00;;
48993;SDS011;34804;49.214;12.276;2023-04-25T06:39:59;6.38;;;3.13;;
48993;SDS011;34804;49.214;12.276;2023-04-25T06:42:26;5.70;;;2.97;;
48993;SDS011;34804;49.214;12.276;2023-04-25T06:44:53;8.63;;;3.55;;
48993;SDS011;34804;49.214;12.276;2023-04-25T06:47:20;6.72;;;2.90;;
48993;SDS011;34804;49.214;12.276;2023-04-25T06:49:46;5.32;;;3.15;;
48993;SDS011;34804;49.214;12.276;2023-04-25T06:52:14;6.28;;;3.67;;
48993;SDS011;34804;49.214;12.276;2023-04-25T06:54:41;7.43;;;3.30;;
48993;SDS011;34804;49.214;12.276;2023-04-25T06:57:08;6.93;;;3.30;;
48993;SDS011;34804;49.214;12.276;2023-04-25T06:59:35;6.75;;;3.50;;
48993;SDS011;34804;49.214;12.276;2023-04-25T07:02:02;5.82;;;3.22;;
48993;SDS011;34804;49.214;12.276;2023-04-25T07:04:29;5.68;;;3.03;;
48993;SDS011;34804;49.214;12.276;2023-04-25T07:06:57;6.45;;;3.10;;
48993;SDS011;34804;49.214;12.276;2023-04-25T07:09:24;5.40;;;3.05;;
48993;SDS011;34804;49.214;12.276;2023-04-25T07:11:51;7.15;;;3.30;;
48993;SDS011;34804;49.214;12.276;2023-04-25T07:14:19;7.15;;;3.38;;
48993;SDS011;34804;49.214;12.276;2023-04-25T07:16:46;6.43;;;2.88;;
48993;SDS011;34804;49.214;12.276;2023-04-25T07:19:13;7.32;;;3.85;;
48993;SDS011;34804;49.214;12.276;2023-04-25T07:21:40;5.88;;;3.63;;
48993;SDS011;34804;49.214;12.276;2023-04-25T07:24:07;7.90;;;3.28;;
48993;SDS011;34804;49.214;12.276;2023-04-25T07:26:33;5.30;;;3.03;;
48993;SDS011;34804;49.214;12.276;2023-04-25T07:29:00;8.57;;;3.53;;
48993;SDS011;34804;49.214;12.276;2023-04-25T07:31:27;6.60;;;3.00;;
48993;SDS011;34804;49.214;12.276;2023-04-25T07:33:54;6.35;;;3.08;;
48993;SDS011;34804;49.214;12.276;2023-04-25T07:36:21;5.43;;;3.05;;
48993;SDS011;34804;49.214;12.276;2023-04-25T07:38:48;6.22;;;3.08;;
48993;SDS011;34804;49.214;12.276;2023-04-25T07:41:15;6.18;;;3.35;;
48993;SDS011;34804;49.214;12.276;2023-04-25T07:43:42;5.47;;;2.70;;
48993;SDS011;34804;49.214;12.276;2023-04-25T07:46:09;4.63;;;2.67;;
48993;SDS011;34804;49.214;12.276;2023-04-25T07:48:36;4.65;;;2.53;;
48993;SDS011;34804;49.214;12.276;2023-04-25T07:51:03;6.40;;;2.88;;
48993;SDS011;34804;49.214;12.276;2023-04-25T07:53:31;5.80;;;2.88;;
48993;SDS011;34804;49.214;12.276;2023-04-25T07:55:58;5.22;;;2.80;;
48993;SDS011;34804;49.214;12.276;2023-04-25T07:58:25;6.13;;;2.88;;
48993;SDS011;34804;49.214;12.276;2023-04-25T08:00:52;5.63;;;2.80;;
48993;SDS011;34804;49.214;12.276;2023-04-25T08:03:19;4.97;;;2.72;;
48993;SDS011;34804;49.214;12.276;2023-04-25T08:05:46;5.60;;;2.67;;
48993;SDS011;34804;49.214;12.276;2023-04-25T08:08:13;4.93;;;2.67;;
48993;SDS011;34804;49.214;12.276;2023-04-25T08:10:39;5.93;;;2.35;;
48993;SDS011;34804;49.214;12.276;2023-04-25T08:13:06;5.82;;;2.97;;
48993;SDS011;34804;49.214;12.276;2023-04-25T08:15:33;4.82;;;2.40;;
48993;SDS011;34804;49.214;12.276;2023-04-25T08:18:00;5.18;;;3.10;;
48993;SDS011;34804;49.214;12.276;2023-04-25T08:20:27;5.80;;;2.90;;
48993;SDS011;34804;49.214;12.276;2023-04-25T08:22:54;5.18;;;2.90;;
48993;SDS011;34804;49.214;12.276;2023-04-25T08:25:21;4.97;;;2.80;;
48993;SDS011;34804;49.214;12.276;2023-04-25T08:27:48;7.20;;;2.65;;
48993;SDS011;34804;49.214;12.276;2023-04-25T08:30:15;6.80;;;3.00;;
48993;SDS011;34804;49.214;12.276;2023-04-25T08:32:42;4.90;;;2.72;;
48993;SDS011;34804;49.214;12.276;2023-04-25T08:35:09;5.43;;;2.58;;
48993;SDS011;34804;49.214;12.276;2023-04-25T08:37:36;5.30;;;3.10;;
48993;SDS011;34804;49.214;12.276;2023-04-25T08:40:03;6.50;;;2.90;;
48993;SDS011;34804;49.214;12.276;2023-04-25T08:42:33;5.72;;;2.65;;
48993;SDS011;34804;49.214;12.276;2023-04-25T08:45:02;6.05;;;2.90;;
48993;SDS011;34804;49.214;12.276;2023-04-25T08:47:33;5.30;;;2.95;;
48993;SDS011;34804;49.214;12.276;2023-04-25T08:50:02;4.60;;;2.58;;
48993;SDS011;34804;49.214;12.276;2023-04-25T08:52:35;5.03;;;2.75;;
48993;SDS011;34804;49.214;12.276;2023-04-25T08:55:06;4.75;;;2.85;;
48993;SDS011;34804;49.214;12.276;2023-04-25T08:57:35;5.38;;;2.78;;
48993;SDS011;34804;49.214;12.276;2023-04-25T09:00:04;5.47;;;3.00;;
48993;SDS011;34804;49.214;12.276;2023-04-25T09:02:32;6.03;;;3.15;;
48993;SDS011;34804;49.214;12.276;2023-04-25T09:05:01;5.18;;;3.13;;
48993;SDS011;34804;49.214;12.276;2023-04-25T09:07:30;5.65;;;3.20;;
48993;SDS011;34804;49.214;12.276;2023-04-25T09:09:58;6.78;;;3.45;;
48993;SDS011;34804;49.214;12.276;2023-04-25T09:12:29;5.80;;;3.35;;
48993;SDS011;34804;49.214;12.276;2023-04-25T09:17:32;5.30;;;2.90;;
48993;SDS011;34804;49.214;12.276;2023-04-25T09:20:06;5.38;;;3.05;;
48993;SDS011;34804;49.214;12.276;2023-04-25T09:22:35;7.18;;;2.67;;
48993;SDS011;34804;49.214;12.276;2023-04-25T09:25:10;5.90;;;2.35;;
48993;SDS011;34804;49.214;12.276;2023-04-25T09:27:50;4.55;;;2.35;;
48993;SDS011;34804;49.214;12.276;2023-04-25T09:30:18;5.25;;;2.47;;
48993;SDS011;34804;49.214;12.276;2023-04-25T09:32:56;4.65;;;2.45;;
48993;SDS011;34804;49.214;12.276;2023-04-25T09:35:30;5.60;;;3.10;;
48993;SDS011;34804;49.214;12.276;2023-04-25T09:38:09;6.35;;;2.95;;
48993;SDS011;34804;49.214;12.276;2023-04-25T09:40:41;6.15;;;3.30;;
48993;SDS011;34804;49.214;12.276;2023-04-25T09:43:19;5.43;;;2.42;;
48993;SDS011;34804;49.214;12.276;2023-04-25T09:45:47;4.70;;;2.60;;
48993;SDS011;34804;49.214;12.276;2023-04-25T09:48:21;3.53;;;1.67;;
48993;SDS011;34804;49.214;12.276;2023-04-25T09:53:35;4.15;;;1.80;;
48993;SDS011;34804;49.214;12.276;2023-04-25T09:56:07;5.25;;;1.60;;
48993;SDS011;34804;49.214;12.276;2023-04-25T09:58:36;3.63;;;1.67;;
48993;SDS011;34804;49.214;12.276;2023-04-25T10:01:05;3.78;;;1.52;;
48993;SDS011;34804;49.214;12.276;2023-04-25T10:03:34;5.07;;;2.22;;
48993;SDS011;34804;49.214;12.276;2023-04-25T10:06:04;4.85;;;2.72;;
48993;SDS011;34804;49.214;12.276;2023-04-25T10:08:35;5.13;;;1.80;;
48993;SDS011;34804;49.214;12.276;2023-04-25T10:11:04;6.30;;;2.45;;
48993;SDS011;34804;49.214;12.276;2023-04-25T10:13:32;5.10;;;1.67;;
48993;SDS011;34804;49.214;12.276;2023-04-25T10:16:02;5.85;;;2.20;;
48993;SDS011;34804;49.214;12.276;2023-04-25T10:18:31;5.85;;;2.00;;
48993;SDS011;34804;49.214;12.276;2023-04-25T10:20:59;5.45;;;2.50;;
48993;SDS011;34804;49.214;12.276;2023-04-25T10:23:29;4.38;;;2.38;;
48993;SDS011;34804;49.214;12.276;2023-04-25T10:25:57;5.72;;;2.35;;
48993;SDS011;34804;49.214;12.276;2023-04-25T10:28:25;5.28;;;2.40;;
48993;SDS011;34804;49.214;12.276;2023-04-25T10:31:07;4.07;;;1.98;;
48993;SDS011;34804;49.214;12.276;2023-04-25T10:33:35;4.05;;;1.90;;
48993;SDS011;34804;49.214;12.276;2023-04-25T10:36:13;5.03;;;2.00;;
48993;SDS011;34804;49.214;12.276;2023-04-25T10:38:44;3.80;;;2.00;;
48993;SDS011;34804;49.214;12.276;2023-04-25T10:41:12;6.22;;;2.20;;
48993;SDS011;34804;49.214;12.276;2023-04-25T10:43:41;4.45;;;2.47;;
48993;SDS011;34804;49.214;12.276;2023-04-25T10:48:46;4.93;;;1.65;;
48993;SDS011;34804;49.214;12.276;2023-04-25T10:51:16;3.08;;;1.58;;
48993;SDS011;34804;49.214;12.276;2023-04-25T10:53:56;2.25;;;1.05;;
48993;SDS011;34804;49.214;12.276;2023-04-25T10:56:30;1.88;;;1.00;;
48993;SDS011;34804;49.214;12.276;2023-04-25T10:59:12;4.13;;;1.83;;
48993;SDS011;34804;49.214;12.276;2023-04-25T11:01:46;3.95;;;1.60;;
48993;SDS011;34804;49.214;12.276;2023-04-25T11:04:25;3.70;;;1.60;;
48993;SDS011;34804;49.214;12.276;2023-04-25T11:09:33;3.85;;;2.08;;
48993;SDS011;34804;49.214;12.276;2023-04-25T11:12:01;5.65;;;2.30;;
48993;SDS011;34804;49.214;12.276;2023-04-25T11:14:28;6.35;;;2.80;;
48993;SDS011;34804;49.214;12.276;2023-04-25T11:16:56;6.25;;;2.80;;
48993;SDS011;34804;49.214;12.276;2023-04-25T11:19:26;4.50;;;2.33;;
48993;SDS011;34804;49.214;12.276;2023-04-25T11:21:55;5.47;;;2.72;;
48993;SDS011;34804;49.214;12.276;2023-04-25T11:24:29;4.55;;;2.60;;
48993;SDS011;34804;49.214;12.276;2023-04-25T11:26:57;8.55;;;2.50;;
48993;SDS011;34804;49.214;12.276;2023-04-25T11:29:28;6.38;;;2.40;;
48993;SDS011;34804;49.214;12.276;2023-04-25T11:31:57;5.78;;;2.22;;
48993;SDS011;34804;49.214;12.276;2023-04-25T11:34:25;4.35;;;2.35;;
48993;SDS011;34804;49.214;12.276;2023-04-25T11:36:52;5.47;;;2.33;;
48993;SDS011;34804;49.214;12.276;2023-04-25T11:39:20;4.70;;;2.75;;
48993;SDS011;34804;49.214;12.276;2023-04-25T11:41:47;5.70;;;3.05;;
48993;SDS011;34804;49.214;12.276;2023-04-25T11:44:18;5.22;;;2.92;;
48993;SDS011;34804;49.214;12.276;2023-04-25T11:46:46;6.13;;;3.42;;
48993;SDS011;34804;49.214;12.276;2023-04-25T11:49:17;4.85;;;2.53;;
48993;SDS011;34804;49.214;12.276;2023-04-25T11:51:47;5.60;;;2.88;;
48993;SDS011;34804;49.214;12.276;2023-04-25T11:54:15;6.47;;;2.83;;
48993;SDS011;34804;49.214;12.276;2023-04-25T11:56:45;5.82;;;2.70;;
48993;SDS011;34804;49.214;12.276;2023-04-25T11:59:15;6.15;;;2.83;;
48993;SDS011;34804;49.214;12.276;2023-04-25T12:01:49;4.60;;;2.30;;
48993;SDS011;34804;49.214;12.276;2023-04-25T12:09:20;6.03;;;2.60;;
48993;SDS011;34804;49.214;12.276;2023-04-25T12:11:54;5.82;;;2.38;;
48993;SDS011;34804;49.214;12.276;2023-04-25T12:16:57;5.57;;;2.65;;
48993;SDS011;34804;49.214;12.276;2023-04-25T12:19:25;6.30;;;2.55;;
48993;SDS011;34804;49.214;12.276;2023-04-25T12:21:57;5.97;;;2.70;;
48993;SDS011;34804;49.214;12.276;2023-04-25T12:24:26;5.72;;;2.60;;
48993;SDS011;34804;49.214;12.276;2023-04-25T12:27:01;6.75;;;3.03;;
48993;SDS011;34804;49.214;12.276;2023-04-25T12:29:30;5.07;;;2.33;;
48993;SDS011;34804;49.214;12.276;2023-04-25T12:32:14;4.32;;;2.60;;
48993;SDS011;34804;49.214;12.276;2023-04-25T12:34:41;6.18;;;2.92;;
48993;SDS011;34804;49.214;12.276;2023-04-25T12:37:08;5.72;;;2.45;;
48993;SDS011;34804;49.214;12.276;2023-04-25T12:39:36;5.63;;;2.80;;
48993;SDS011;34804;49.214;12.276;2023-04-25T12:42:02;5.88;;;2.75;;
48993;SDS011;34804;49.214;12.276;2023-04-25T12:44:33;6.68;;;2.97;;
48993;SDS011;34804;49.214;12.276;2023-04-25T12:47:00;6.15;;;3.17;;
48993;SDS011;34804;49.214;12.276;2023-04-25T12:49:27;8.18;;;2.70;;
48993;SDS011;34804;49.214;12.276;2023-04-25T12:51:54;5.93;;;3.22;;
48993;SDS011;34804;49.214;12.276;2023-04-25T12:54:21;4.70;;;2.22;;
48993;SDS011;34804;49.214;12.276;2023-04-25T12:56:48;5.53;;;2.33;;
48993;SDS011;34804;49.214;12.276;2023-04-25T12:59:16;4.78;;;2.10;;
48993;SDS011;34804;49.214;12.276;2023-04-25T13:01:44;4.80;;;1.98;;
48993;SDS011;34804;49.214;12.276;2023-04-25T13:04:11;5.15;;;2.00;;
48993;SDS011;34804;49.214;12.276;2023-04-25T13:06:38;3.50;;;1.63;;
48993;SDS011;34804;49.214;12.276;2023-04-25T13:09:05;5.10;;;1.60;;
48993;SDS011;34804;49.214;12.276;2023-04-25T13:11:33;5.75;;;1.83;;
48993;SDS011;34804;49.214;12.276;2023-04-25T13:14:00;5.32;;;2.08;;
48993;SDS011;34804;49.214;12.276;2023-04-25T13:16:28;3.70;;;1.83;;
48993;SDS011;34804;49.214;12.276;2023-04-25T13:18:55;5.07;;;2.00;;
48993;SDS011;34804;49.214;12.276;2023-04-25T13:21:22;5.03;;;1.92;;
48993;SDS011;34804;49.214;12.276;2023-04-25T13:26:25;5.90;;;2.15;;
48993;SDS011;34804;49.214;12.276;2023-04-25T13:28:52;6.40;;;2.33;;
48993;SDS011;34804;49.214;12.276;2023-04-25T13:31:19;4.55;;;2.13;;
48993;SDS011;34804;49.214;12.276;2023-04-25T13:33:47;5.15;;;1.92;;
48993;SDS011;34804;49.214;12.276;2023-04-25T13:36:14;6.95;;;2.30;;
48993;SDS011;34804;49.214;12.276;2023-04-25T13:38:41;7.60;;;2.53;;
48993;SDS011;34804;49.214;12.276;2023-04-25T13:41:11;5.05;;;2.22;;
48993;SDS011;34804;49.214;12.276;2023-04-25T13:43:41;6.18;;;2.33;;
48993;SDS011;34804;49.214;12.276;2023-04-25T13:46:08;5.53;;;2.08;;
48993;SDS011;34804;49.214;12.276;2023-04-25T13:48:56;4.68;;;2.55;;
48993;SDS011;34804;49.214;12.276;2023-04-25T13:51:37;6.03;;;2.35;;
48993;SDS011;34804;49.214;12.276;2023-04-25T13:54:04;5.78;;;2.40;;
48993;SDS011;34804;49.214;12.276;2023-04-25T13:56:31;5.18;;;2.40;;
48993;SDS011;34804;49.214;12.276;2023-04-25T13:58:58;5.93;;;2.15;;
48993;SDS011;34804;49.214;12.276;2023-04-25T14:01:24;5.90;;;2.03;;
48993;SDS011;34804;49.214;12.276;2023-04-25T14:03:52;5.97;;;2.42;;
48993;SDS011;34804;49.214;12.276;2023-04-25T14:06:21;4.57;;;2.35;;
48993;SDS011;34804;49.214;12.276;2023-04-25T14:08:50;7.43;;;2.65;;
48993;SDS011;34804;49.214;12.276;2023-04-25T14:11:18;3.75;;;1.63;;
48993;SDS011;34804;49.214;12.276;2023-04-25T14:13:45;4.03;;;1.40;;
48993;SDS011;34804;49.214;12.276;2023-04-25T14:16:15;3.00;;;1.30;;
48993;SDS011;34804;49.214;12.276;2023-04-25T14:18:42;4.50;;;1.73;;
48993;SDS011;34804;49.214;12.276;2023-04-25T14:21:09;5.32;;;1.40;;
48993;SDS011;34804;49.214;12.276;2023-04-25T14:23:36;3.28;;;1.30;;
48993;SDS011;34804;49.214;12.276;2023-04-25T14:26:03;4.38;;;1.50;;
48993;SDS011;34804;49.214;12.276;2023-04-25T14:28:31;5.03;;;1.40;;
48993;SDS011;34804;49.214;12.276;2023-04-25T14:30:58;3.13;;;1.60;;
48993;SDS011;34804;49.214;12.276;2023-04-25T14:33:27;3.75;;;1.50;;
48993;SDS011;34804;49.214;12.276;2023-04-25T14:35:53;2.65;;;1.20;;
48993;SDS011;34804;49.214;12.276;2023-04-25T14:38:20;2.67;;;1.30;;
48993;SDS011;34804;49.214;12.276;2023-04-25T14:40:49;5.03;;;1.58;;
48993;SDS011;34804;49.214;12.276;2023-04-25T14:43:16;2.92;;;1.10;;
48993;SDS011;34804;49.214;12.276;2023-04-25T14:45:44;2.03;;;1.00;;
48993;SDS011;34804;49.214;12.276;2023-04-25T14:48:11;3.20;;;1.17;;
48993;SDS011;34804;49.214;12.276;2023-04-25T14:50:38;3.03;;;1.23;;
48993;SDS011;34804;49.214;12.276;2023-04-25T14:53:05;4.38;;;1.20;;
48993;SDS011;34804;49.214;12.276;2023-04-25T14:55:32;2.58;;;0.93;;
48993;SDS011;34804;49.214;12.276;2023-04-25T14:57:59;3.10;;;1.30;;
48993;SDS011;34804;49.214;12.276;2023-04-25T15:00:27;2.40;;;0.93;;